| Date | Time | Temp. (oF) | Dew Point (oF) | Rel. Hum. (%) | Press. (in.) | Wind Dir. | Wind Speed (mph) | Hourly Rainfall (in.) |
|
|---|---|---|---|---|---|---|---|---|---|
| 1 | 12/13 | 00:00 | 53 | 48 | 86 | 30.08 | NNE | 0 | 0.00 |
| 2 | 12/12 | 23:00 | 54 | 49 | 86 | 30.08 | NNW | 0 | 0.00 |
| 3 | 12/12 | 22:00 | 53 | 48 | 86 | 30.08 | SSW | 0 | 0.00 |
| 4 | 12/12 | 21:00 | 54 | 49 | 85 | 30.08 | SW | 0 | 0.00 |
| 5 | 12/12 | 20:00 | 55 | 50 | 84 | 30.08 | NNW | 0 | 0.00 |
| 6 | 12/12 | 19:00 | 55 | 49 | 81 | 30.06 | SSW | 0 | 0.00 |
| 7 | 12/12 | 18:00 | 56 | 49 | 80 | 30.06 | N | 0 | 0.00 |
| 8 | 12/12 | 17:00 | 59 | 50 | 74 | 30.04 | N | 0 | 0.00 |
| 9 | 12/12 | 16:00 | 62 | 51 | 68 | 30.02 | NNE | 2 | 0.00 |
| 10 | 12/12 | 15:00 | 64 | 51 | 64 | 30.01 | NNE | 0 | 0.00 |
| 11 | 12/12 | 14:00 | 64 | 51 | 64 | 30.02 | NNE | 2 | 0.00 |
| 12 | 12/12 | 13:00 | 65 | 53 | 67 | 30.02 | WNW | 0 | 0.00 |
| 13 | 12/12 | 12:00 | 61 | 54 | 78 | 30.04 | SSW | 1 | 0.00 |
| 14 | 12/12 | 11:00 | 51 | 47 | 88 | 30.07 | ENE | 0 | 0.00 |
| 15 | 12/12 | 10:00 | 47 | 43 | 89 | 30.08 | S | 0 | 0.00 |
| 16 | 12/12 | 09:00 | 44 | 41 | 90 | 30.09 | ESE | 0 | 0.00 |
| 17 | 12/12 | 08:00 | 42 | 39 | 90 | 30.07 | ENE | 0 | 0.00 |
| 18 | 12/12 | 07:00 | 41 | 38 | 90 | 30.06 | NE | 0 | 0.00 |
| 19 | 12/12 | 06:00 | 43 | 40 | 90 | 30.05 | NE | 0 | 0.00 |
| 20 | 12/12 | 05:00 | 42 | 39 | 90 | 30.03 | SSW | 0 | 0.00 |
| 21 | 12/12 | 04:00 | 42 | 39 | 90 | 30.02 | SSW | 0 | 0.00 |
| 22 | 12/12 | 03:00 | 43 | 40 | 90 | 30.02 | NE | 0 | 0.00 |
| 23 | 12/12 | 02:00 | 44 | 40 | 89 | 30.00 | NNW | 0 | 0.00 |
| 24 | 12/12 | 01:00 | 44 | 40 | 89 | 30.00 | NNE | 0 | 0.00 |